Strona główna
METAR-TAF:

METAR-TAF

Lotnisko :

Pattani, Tajlandia

Szerokość geograficzna: 06-47-08N, Długość geograficzna: 101-09-13E, wysokość: 2 m

METAR: brakujący

czas: 10:54 (03:54 UTC)

Prognoza

Raport powstał 4 godziny i 54 minut temu, godzina 23:00 UTC
Prognoza ważna od 12 godzina 00 UTC do 12 godzina 24 UTC
Wiatr 3 kt od zachód
Widzialność 10 km lub więcej
Mało chmury na wysokości 2000 ft
Stopniowe zmiany
od 12 godzina 04 UTC do 12 godzina 06 UTC
Wiatr 10 kt od północno-północny zachód
Przejściowo
od 12 godzina 06 UTC do 12 godzina 12 UTC
Wiatr 10 kt z kierunków zmiennych w porywach dochodzący do 20 kt
Widzialność: 3000 m
Mało chmury na wysokości 1600 ft, Cumulonimbus.
Rozproszone chmury na wysokości 1800 ft
Przerywane chmury na wysokości 10000 ft
burza, deszcz
Stopniowe zmiany
od 12 godzina 13 UTC do 12 godzina 15 UTC
Wiatr 3 kt od zachód

TAF: VTSK 112300Z 1200/1224 27003KT 9999 FEW020 BECMG 1204/1206 33010KT TEMPO 1206/1212 VRB10G20KT 3000 TSRA FEW016CB SCT018 BKN100 BECMG 1213/1215 27003KT

Obserwacja i prognoza pogody dla ponad 4000 lotnisk (raport METAR i TAF).

Dostępne stacje oznaczono żółtymi i czerwonymi punktami na mapie.

Najedź kursorem aby zobaczyć nazwę stacji.

Kliknij aby zobaczyć obserwacje i prognozy pogody.

Aby zmienić mapę: kliknij na zielony przycisk z czarnym krzyżykiem, aby powiększyć; na zielony przycisk z myślnikiem, aby pomniejszyć; na zielone strzałki, aby przejść do map sąsiednich.


METAR-TAF: